Terminal Aerodrome Forecast
Issued by NWS Tallahassee, FL

Home | Current Version | Previous Version | Text Only | Print | Product List | Glossary On
Versions: 1 2 3 4 5 6 7 8 9 10 11 12 13 14 15
000
FTUS42 KTAE 202320
TAFTLH
TAF
KTLH 202320Z 2100/2124 25006KT P6SM TS SCT060CB BKN250
     FM210100 10005KT P6SM SCT050 BKN100
     FM212100 15006KT P6SM TS BKN050CB=

USA.gov is the U.S. government's official web portal to all federal, state and local government web resources and services.